Terminal Aerodrome Forecast
Issued by NWS

Home | Current Version | Previous Version | Graphics & Text | Print | Product List | Glossary On
Versions: 1 2 3 4 5 6 7 8 9 10 11 12 13 14 15 16 17 18 19 20 21 22
000
FTUS43 KMPX 281000 AAB
TAFAXN
TAF AMD
KAXN 281030Z 2811/2906 13009KT P6SM OVC060
     FM281500 12008KT 6SM BR VCSH SCT015 OVC035
      TEMPO 2816/2819 BKN015
     FM290000 13007KT P6SM BKN015 OVC035
     FM290500 15012KT P6SM OVC050=

USA.gov is the U.S. government's official web portal to all federal, state and local government web resources and services.